sensor_id;sensor_type;location;lat;lon;timestamp;P1;durP1;ratioP1;P2;durP2;ratioP2
16288;SDS011;26089;43.538;5.250;2023-03-01T00:01:10;17.50;;;14.93;;
16288;SDS011;26089;43.538;5.250;2023-03-01T00:03:39;14.30;;;11.73;;
16288;SDS011;26089;43.538;5.250;2023-03-01T00:06:06;16.87;;;13.93;;
16288;SDS011;26089;43.538;5.250;2023-03-01T00:08:33;19.23;;;13.83;;
16288;SDS011;26089;43.538;5.250;2023-03-01T00:11:01;17.37;;;13.80;;
16288;SDS011;26089;43.538;5.250;2023-03-01T00:13:30;17.93;;;13.37;;
16288;SDS011;26089;43.538;5.250;2023-03-01T00:15:58;14.57;;;12.87;;
16288;SDS011;26089;43.538;5.250;2023-03-01T00:18:27;15.83;;;12.60;;
16288;SDS011;26089;43.538;5.250;2023-03-01T00:20:54;14.97;;;12.60;;
16288;SDS011;26089;43.538;5.250;2023-03-01T00:23:22;18.03;;;13.67;;
16288;SDS011;26089;43.538;5.250;2023-03-01T00:25:50;16.93;;;13.60;;
16288;SDS011;26089;43.538;5.250;2023-03-01T00:28:17;15.67;;;13.20;;
16288;SDS011;26089;43.538;5.250;2023-03-01T00:30:45;14.30;;;12.23;;
16288;SDS011;26089;43.538;5.250;2023-03-01T00:33:14;15.80;;;14.10;;
16288;SDS011;26089;43.538;5.250;2023-03-01T00:35:41;15.73;;;12.90;;
16288;SDS011;26089;43.538;5.250;2023-03-01T00:38:08;14.87;;;13.27;;
16288;SDS011;26089;43.538;5.250;2023-03-01T00:40:35;16.13;;;13.27;;
16288;SDS011;26089;43.538;5.250;2023-03-01T00:43:02;16.13;;;13.53;;
16288;SDS011;26089;43.538;5.250;2023-03-01T00:45:30;16.80;;;14.10;;
16288;SDS011;26089;43.538;5.250;2023-03-01T00:47:57;14.97;;;12.20;;
16288;SDS011;26089;43.538;5.250;2023-03-01T00:50:25;14.80;;;12.77;;
16288;SDS011;26089;43.538;5.250;2023-03-01T00:52:53;14.07;;;12.43;;
16288;SDS011;26089;43.538;5.250;2023-03-01T00:55:20;16.70;;;12.17;;
16288;SDS011;26089;43.538;5.250;2023-03-01T00:57:47;16.80;;;13.50;;
16288;SDS011;26089;43.538;5.250;2023-03-01T01:00:14;16.40;;;12.70;;
16288;SDS011;26089;43.538;5.250;2023-03-01T01:02:42;16.83;;;14.50;;
16288;SDS011;26089;43.538;5.250;2023-03-01T01:05:09;16.23;;;13.67;;
16288;SDS011;26089;43.538;5.250;2023-03-01T01:07:38;17.70;;;12.47;;
16288;SDS011;26089;43.538;5.250;2023-03-01T01:10:06;15.83;;;12.90;;
16288;SDS011;26089;43.538;5.250;2023-03-01T01:12:33;15.33;;;11.57;;
16288;SDS011;26089;43.538;5.250;2023-03-01T01:15:00;15.63;;;13.30;;
16288;SDS011;26089;43.538;5.250;2023-03-01T01:17:27;17.63;;;13.37;;
16288;SDS011;26089;43.538;5.250;2023-03-01T01:19:54;15.97;;;14.07;;
16288;SDS011;26089;43.538;5.250;2023-03-01T01:22:21;20.87;;;16.13;;
16288;SDS011;26089;43.538;5.250;2023-03-01T01:24:49;19.77;;;16.23;;
16288;SDS011;26089;43.538;5.250;2023-03-01T01:27:16;17.93;;;16.03;;
16288;SDS011;26089;43.538;5.250;2023-03-01T01:29:43;18.20;;;14.43;;
16288;SDS011;26089;43.538;5.250;2023-03-01T01:32:10;20.10;;;15.40;;
16288;SDS011;26089;43.538;5.250;2023-03-01T01:34:37;17.03;;;15.00;;
16288;SDS011;26089;43.538;5.250;2023-03-01T01:37:04;19.17;;;15.63;;
16288;SDS011;26089;43.538;5.250;2023-03-01T01:39:32;16.00;;;13.20;;
16288;SDS011;26089;43.538;5.250;2023-03-01T01:42:01;16.73;;;13.53;;
16288;SDS011;26089;43.538;5.250;2023-03-01T01:44:28;21.77;;;16.20;;
16288;SDS011;26089;43.538;5.250;2023-03-01T01:46:56;16.80;;;13.77;;
16288;SDS011;26089;43.538;5.250;2023-03-01T01:49:27;14.20;;;11.37;;
16288;SDS011;26089;43.538;5.250;2023-03-01T01:52:00;15.10;;;13.27;;
16288;SDS011;26089;43.538;5.250;2023-03-01T01:54:35;18.03;;;14.73;;
16288;SDS011;26089;43.538;5.250;2023-03-01T01:57:09;16.80;;;14.80;;
16288;SDS011;26089;43.538;5.250;2023-03-01T01:59:40;17.03;;;14.47;;
16288;SDS011;26089;43.538;5.250;2023-03-01T02:02:12;16.67;;;14.07;;
16288;SDS011;26089;43.538;5.250;2023-03-01T02:04:39;18.77;;;14.40;;
16288;SDS011;26089;43.538;5.250;2023-03-01T02:07:09;14.90;;;13.13;;
16288;SDS011;26089;43.538;5.250;2023-03-01T02:09:40;17.37;;;14.07;;
16288;SDS011;26089;43.538;5.250;2023-03-01T02:12:11;18.63;;;13.07;;
16288;SDS011;26089;43.538;5.250;2023-03-01T02:14:40;17.30;;;13.83;;
16288;SDS011;26089;43.538;5.250;2023-03-01T02:17:07;17.57;;;14.13;;
16288;SDS011;26089;43.538;5.250;2023-03-01T02:19:38;16.40;;;13.10;;
16288;SDS011;26089;43.538;5.250;2023-03-01T02:22:17;16.20;;;12.87;;
16288;SDS011;26089;43.538;5.250;2023-03-01T02:24:51;16.23;;;14.07;;
16288;SDS011;26089;43.538;5.250;2023-03-01T02:27:32;19.17;;;13.57;;
16288;SDS011;26089;43.538;5.250;2023-03-01T02:30:06;16.40;;;13.37;;
16288;SDS011;26089;43.538;5.250;2023-03-01T02:32:37;16.80;;;14.50;;
16288;SDS011;26089;43.538;5.250;2023-03-01T02:35:07;16.87;;;13.57;;
16288;SDS011;26089;43.538;5.250;2023-03-01T02:37:36;17.73;;;13.93;;
16288;SDS011;26089;43.538;5.250;2023-03-01T02:40:05;19.60;;;14.60;;
16288;SDS011;26089;43.538;5.250;2023-03-01T02:42:38;18.40;;;14.53;;
16288;SDS011;26089;43.538;5.250;2023-03-01T02:45:13;18.03;;;13.50;;
16288;SDS011;26089;43.538;5.250;2023-03-01T02:47:40;18.80;;;14.13;;
16288;SDS011;26089;43.538;5.250;2023-03-01T02:50:11;18.27;;;14.37;;
16288;SDS011;26089;43.538;5.250;2023-03-01T02:52:51;14.23;;;12.73;;
16288;SDS011;26089;43.538;5.250;2023-03-01T02:55:23;16.50;;;13.33;;
16288;SDS011;26089;43.538;5.250;2023-03-01T02:57:50;19.23;;;14.07;;
16288;SDS011;26089;43.538;5.250;2023-03-01T03:00:20;21.73;;;16.03;;
16288;SDS011;26089;43.538;5.250;2023-03-01T03:02:51;20.90;;;15.57;;
16288;SDS011;26089;43.538;5.250;2023-03-01T03:05:22;18.23;;;14.60;;
16288;SDS011;26089;43.538;5.250;2023-03-01T03:07:51;17.73;;;13.83;;
16288;SDS011;26089;43.538;5.250;2023-03-01T03:10:19;18.17;;;13.70;;
16288;SDS011;26089;43.538;5.250;2023-03-01T03:12:49;16.40;;;12.70;;
16288;SDS011;26089;43.538;5.250;2023-03-01T03:15:17;15.63;;;12.70;;
16288;SDS011;26089;43.538;5.250;2023-03-01T03:17:46;16.33;;;13.80;;
16288;SDS011;26089;43.538;5.250;2023-03-01T03:20:15;16.93;;;12.57;;
16288;SDS011;26089;43.538;5.250;2023-03-01T03:22:45;17.43;;;13.20;;
16288;SDS011;26089;43.538;5.250;2023-03-01T03:25:12;16.07;;;12.93;;
16288;SDS011;26089;43.538;5.250;2023-03-01T03:27:40;15.80;;;12.83;;
16288;SDS011;26089;43.538;5.250;2023-03-01T03:30:10;15.73;;;12.37;;
16288;SDS011;26089;43.538;5.250;2023-03-01T03:32:39;16.23;;;13.60;;
16288;SDS011;26089;43.538;5.250;2023-03-01T03:35:09;16.23;;;12.97;;
16288;SDS011;26089;43.538;5.250;2023-03-01T03:37:36;17.40;;;13.23;;
16288;SDS011;26089;43.538;5.250;2023-03-01T03:40:21;16.03;;;13.17;;
16288;SDS011;26089;43.538;5.250;2023-03-01T03:42:48;16.33;;;13.43;;
16288;SDS011;26089;43.538;5.250;2023-03-01T03:45:15;16.20;;;13.23;;
16288;SDS011;26089;43.538;5.250;2023-03-01T03:47:42;15.57;;;13.97;;
16288;SDS011;26089;43.538;5.250;2023-03-01T03:50:11;18.03;;;14.07;;
16288;SDS011;26089;43.538;5.250;2023-03-01T03:52:40;16.23;;;13.13;;
16288;SDS011;26089;43.538;5.250;2023-03-01T03:55:07;19.00;;;14.73;;
16288;SDS011;26089;43.538;5.250;2023-03-01T03:57:35;16.83;;;13.30;;
16288;SDS011;26089;43.538;5.250;2023-03-01T04:00:03;18.40;;;14.07;;
16288;SDS011;26089;43.538;5.250;2023-03-01T04:02:37;16.60;;;13.97;;
16288;SDS011;26089;43.538;5.250;2023-03-01T04:05:05;18.03;;;13.80;;
16288;SDS011;26089;43.538;5.250;2023-03-01T04:07:34;16.47;;;13.70;;
16288;SDS011;26089;43.538;5.250;2023-03-01T04:10:01;16.37;;;12.87;;
16288;SDS011;26089;43.538;5.250;2023-03-01T04:12:28;15.03;;;13.27;;
16288;SDS011;26089;43.538;5.250;2023-03-01T04:14:55;17.87;;;13.57;;
16288;SDS011;26089;43.538;5.250;2023-03-01T04:17:23;17.97;;;13.13;;
16288;SDS011;26089;43.538;5.250;2023-03-01T04:19:50;17.37;;;13.97;;
16288;SDS011;26089;43.538;5.250;2023-03-01T04:22:17;17.87;;;14.93;;
16288;SDS011;26089;43.538;5.250;2023-03-01T04:24:45;17.23;;;13.97;;
16288;SDS011;26089;43.538;5.250;2023-03-01T04:27:12;23.37;;;16.27;;
16288;SDS011;26089;43.538;5.250;2023-03-01T04:29:39;28.67;;;20.40;;
16288;SDS011;26089;43.538;5.250;2023-03-01T04:32:06;35.23;;;22.07;;
16288;SDS011;26089;43.538;5.250;2023-03-01T04:34:33;34.77;;;23.23;;
16288;SDS011;26089;43.538;5.250;2023-03-01T04:37:00;25.23;;;17.67;;
16288;SDS011;26089;43.538;5.250;2023-03-01T04:39:27;21.23;;;16.67;;
16288;SDS011;26089;43.538;5.250;2023-03-01T04:41:55;18.70;;;14.57;;
16288;SDS011;26089;43.538;5.250;2023-03-01T04:44:22;17.03;;;14.53;;
16288;SDS011;26089;43.538;5.250;2023-03-01T04:46:49;16.27;;;14.57;;
16288;SDS011;26089;43.538;5.250;2023-03-01T04:49:16;17.90;;;14.90;;
16288;SDS011;26089;43.538;5.250;2023-03-01T04:51:43;18.77;;;14.90;;
16288;SDS011;26089;43.538;5.250;2023-03-01T04:54:10;20.70;;;15.70;;
16288;SDS011;26089;43.538;5.250;2023-03-01T04:56:37;27.30;;;19.87;;
16288;SDS011;26089;43.538;5.250;2023-03-01T04:59:05;24.57;;;18.30;;
16288;SDS011;26089;43.538;5.250;2023-03-01T05:01:35;22.57;;;18.20;;
16288;SDS011;26089;43.538;5.250;2023-03-01T05:04:02;20.50;;;18.27;;
16288;SDS011;26089;43.538;5.250;2023-03-01T05:06:30;24.10;;;17.67;;
16288;SDS011;26089;43.538;5.250;2023-03-01T05:08:57;21.80;;;16.73;;
16288;SDS011;26089;43.538;5.250;2023-03-01T05:11:24;20.60;;;16.00;;
16288;SDS011;26089;43.538;5.250;2023-03-01T05:13:53;27.63;;;20.67;;
16288;SDS011;26089;43.538;5.250;2023-03-01T05:16:21;26.93;;;20.90;;
16288;SDS011;26089;43.538;5.250;2023-03-01T05:18:48;23.57;;;17.07;;
16288;SDS011;26089;43.538;5.250;2023-03-01T05:21:16;24.67;;;19.97;;
16288;SDS011;26089;43.538;5.250;2023-03-01T05:23:43;21.67;;;18.03;;
16288;SDS011;26089;43.538;5.250;2023-03-01T05:26:12;21.30;;;16.93;;
16288;SDS011;26089;43.538;5.250;2023-03-01T05:28:39;28.27;;;19.43;;
16288;SDS011;26089;43.538;5.250;2023-03-01T05:31:06;23.50;;;18.33;;
16288;SDS011;26089;43.538;5.250;2023-03-01T05:33:36;20.40;;;17.90;;
16288;SDS011;26089;43.538;5.250;2023-03-01T05:36:04;20.47;;;16.20;;
16288;SDS011;26089;43.538;5.250;2023-03-01T05:38:32;19.03;;;14.87;;
16288;SDS011;26089;43.538;5.250;2023-03-01T05:40:59;17.77;;;14.77;;
16288;SDS011;26089;43.538;5.250;2023-03-01T05:43:29;20.67;;;15.87;;
16288;SDS011;26089;43.538;5.250;2023-03-01T05:45:59;22.03;;;17.87;;
16288;SDS011;26089;43.538;5.250;2023-03-01T05:48:26;21.80;;;16.53;;
16288;SDS011;26089;43.538;5.250;2023-03-01T05:50:54;20.80;;;15.87;;
16288;SDS011;26089;43.538;5.250;2023-03-01T05:53:21;22.07;;;16.60;;
16288;SDS011;26089;43.538;5.250;2023-03-01T05:55:48;20.17;;;16.80;;
16288;SDS011;26089;43.538;5.250;2023-03-01T05:58:15;27.57;;;18.93;;
16288;SDS011;26089;43.538;5.250;2023-03-01T06:00:45;24.60;;;18.10;;
16288;SDS011;26089;43.538;5.250;2023-03-01T06:03:14;20.97;;;17.43;;
16288;SDS011;26089;43.538;5.250;2023-03-01T06:05:42;29.03;;;24.00;;
16288;SDS011;26089;43.538;5.250;2023-03-01T06:08:11;25.67;;;20.57;;
16288;SDS011;26089;43.538;5.250;2023-03-01T06:10:39;25.07;;;19.80;;
16288;SDS011;26089;43.538;5.250;2023-03-01T06:13:06;24.23;;;20.20;;
16288;SDS011;26089;43.538;5.250;2023-03-01T06:15:33;24.70;;;18.23;;
16288;SDS011;26089;43.538;5.250;2023-03-01T06:18:00;21.77;;;18.00;;
16288;SDS011;26089;43.538;5.250;2023-03-01T06:20:27;24.73;;;16.70;;
16288;SDS011;26089;43.538;5.250;2023-03-01T06:22:55;21.20;;;17.37;;
16288;SDS011;26089;43.538;5.250;2023-03-01T06:25:24;23.57;;;16.63;;
16288;SDS011;26089;43.538;5.250;2023-03-01T06:27:52;21.57;;;16.47;;
16288;SDS011;26089;43.538;5.250;2023-03-01T06:30:20;25.13;;;17.77;;
16288;SDS011;26089;43.538;5.250;2023-03-01T06:32:48;29.47;;;20.73;;
16288;SDS011;26089;43.538;5.250;2023-03-01T06:35:15;29.23;;;19.73;;
16288;SDS011;26089;43.538;5.250;2023-03-01T06:37:44;25.40;;;18.23;;
16288;SDS011;26089;43.538;5.250;2023-03-01T06:40:11;22.53;;;16.33;;
16288;SDS011;26089;43.538;5.250;2023-03-01T06:42:41;25.63;;;17.10;;
16288;SDS011;26089;43.538;5.250;2023-03-01T06:45:09;22.37;;;16.93;;
16288;SDS011;26089;43.538;5.250;2023-03-01T06:47:37;19.43;;;16.33;;
16288;SDS011;26089;43.538;5.250;2023-03-01T06:50:04;24.83;;;17.57;;
16288;SDS011;26089;43.538;5.250;2023-03-01T06:52:31;21.80;;;15.70;;
16288;SDS011;26089;43.538;5.250;2023-03-01T06:54:58;22.37;;;16.23;;
16288;SDS011;26089;43.538;5.250;2023-03-01T06:57:25;26.00;;;17.47;;
16288;SDS011;26089;43.538;5.250;2023-03-01T06:59:54;23.03;;;15.87;;
16288;SDS011;26089;43.538;5.250;2023-03-01T07:02:21;24.20;;;16.60;;
16288;SDS011;26089;43.538;5.250;2023-03-01T07:04:48;27.97;;;19.30;;
16288;SDS011;26089;43.538;5.250;2023-03-01T07:07:16;26.97;;;17.90;;
16288;SDS011;26089;43.538;5.250;2023-03-01T07:09:43;25.80;;;18.83;;
16288;SDS011;26089;43.538;5.250;2023-03-01T07:12:10;23.47;;;17.40;;
16288;SDS011;26089;43.538;5.250;2023-03-01T07:14:38;24.87;;;18.57;;
16288;SDS011;26089;43.538;5.250;2023-03-01T07:17:06;25.30;;;17.83;;
16288;SDS011;26089;43.538;5.250;2023-03-01T07:19:33;23.70;;;17.90;;
16288;SDS011;26089;43.538;5.250;2023-03-01T07:22:00;23.50;;;17.77;;
16288;SDS011;26089;43.538;5.250;2023-03-01T07:24:29;24.70;;;17.83;;
16288;SDS011;26089;43.538;5.250;2023-03-01T07:26:56;27.70;;;19.90;;
16288;SDS011;26089;43.538;5.250;2023-03-01T07:29:23;24.37;;;18.93;;
16288;SDS011;26089;43.538;5.250;2023-03-01T07:31:50;23.70;;;17.97;;
16288;SDS011;26089;43.538;5.250;2023-03-01T07:34:18;22.27;;;17.50;;
16288;SDS011;26089;43.538;5.250;2023-03-01T07:36:45;24.73;;;18.43;;
16288;SDS011;26089;43.538;5.250;2023-03-01T07:39:12;25.60;;;18.20;;
16288;SDS011;26089;43.538;5.250;2023-03-01T07:41:39;23.10;;;18.10;;
16288;SDS011;26089;43.538;5.250;2023-03-01T07:44:06;22.10;;;17.97;;
16288;SDS011;26089;43.538;5.250;2023-03-01T07:46:34;23.80;;;18.70;;
16288;SDS011;26089;43.538;5.250;2023-03-01T07:49:01;23.80;;;17.73;;
16288;SDS011;26089;43.538;5.250;2023-03-01T07:51:29;23.90;;;18.00;;
16288;SDS011;26089;43.538;5.250;2023-03-01T07:53:56;23.57;;;17.40;;
16288;SDS011;26089;43.538;5.250;2023-03-01T07:56:23;23.33;;;17.63;;
16288;SDS011;26089;43.538;5.250;2023-03-01T07:58:50;23.40;;;18.20;;
16288;SDS011;26089;43.538;5.250;2023-03-01T08:01:17;23.43;;;17.70;;
16288;SDS011;26089;43.538;5.250;2023-03-01T08:03:45;26.03;;;18.23;;
16288;SDS011;26089;43.538;5.250;2023-03-01T08:06:13;31.87;;;19.93;;
16288;SDS011;26089;43.538;5.250;2023-03-01T08:08:42;22.97;;;17.47;;
16288;SDS011;26089;43.538;5.250;2023-03-01T08:11:10;21.37;;;17.33;;
16288;SDS011;26089;43.538;5.250;2023-03-01T08:13:38;21.63;;;17.03;;
16288;SDS011;26089;43.538;5.250;2023-03-01T08:16:06;20.40;;;16.33;;
16288;SDS011;26089;43.538;5.250;2023-03-01T08:18:36;23.07;;;17.97;;
16288;SDS011;26089;43.538;5.250;2023-03-01T08:21:03;23.00;;;17.70;;
16288;SDS011;26089;43.538;5.250;2023-03-01T08:23:31;21.77;;;17.57;;
16288;SDS011;26089;43.538;5.250;2023-03-01T08:26:08;22.53;;;17.77;;
16288;SDS011;26089;43.538;5.250;2023-03-01T08:28:37;21.70;;;17.33;;
16288;SDS011;26089;43.538;5.250;2023-03-01T08:31:12;24.60;;;17.60;;
16288;SDS011;26089;43.538;5.250;2023-03-01T08:33:40;22.87;;;18.83;;
16288;SDS011;26089;43.538;5.250;2023-03-01T08:36:07;22.83;;;17.27;;
16288;SDS011;26089;43.538;5.250;2023-03-01T08:38:34;21.83;;;17.17;;
16288;SDS011;26089;43.538;5.250;2023-03-01T08:41:01;19.93;;;16.50;;
16288;SDS011;26089;43.538;5.250;2023-03-01T08:43:30;22.87;;;17.77;;
16288;SDS011;26089;43.538;5.250;2023-03-01T08:45:57;21.60;;;17.20;;
16288;SDS011;26089;43.538;5.250;2023-03-01T08:48:24;23.80;;;18.27;;
16288;SDS011;26089;43.538;5.250;2023-03-01T08:50:53;20.50;;;17.60;;
16288;SDS011;26089;43.538;5.250;2023-03-01T08:53:20;22.57;;;17.87;;
16288;SDS011;26089;43.538;5.250;2023-03-01T08:55:47;24.63;;;18.87;;
16288;SDS011;26089;43.538;5.250;2023-03-01T08:58:14;21.53;;;17.50;;
16288;SDS011;26089;43.538;5.250;2023-03-01T09:00:42;21.73;;;17.37;;
16288;SDS011;26089;43.538;5.250;2023-03-01T09:03:09;23.93;;;18.03;;
16288;SDS011;26089;43.538;5.250;2023-03-01T09:05:36;21.83;;;18.10;;
16288;SDS011;26089;43.538;5.250;2023-03-01T09:08:03;22.67;;;17.67;;
16288;SDS011;26089;43.538;5.250;2023-03-01T09:10:30;23.33;;;17.93;;
16288;SDS011;26089;43.538;5.250;2023-03-01T09:12:57;18.63;;;16.07;;
16288;SDS011;26089;43.538;5.250;2023-03-01T09:15:24;19.83;;;16.00;;
16288;SDS011;26089;43.538;5.250;2023-03-01T09:17:53;17.53;;;14.80;;
16288;SDS011;26089;43.538;5.250;2023-03-01T09:20:20;17.23;;;14.03;;
16288;SDS011;26089;43.538;5.250;2023-03-01T09:22:46;22.90;;;17.20;;
16288;SDS011;26089;43.538;5.250;2023-03-01T09:25:13;18.77;;;15.70;;
16288;SDS011;26089;43.538;5.250;2023-03-01T09:27:40;21.00;;;16.33;;
16288;SDS011;26089;43.538;5.250;2023-03-01T09:30:08;19.50;;;15.87;;
16288;SDS011;26089;43.538;5.250;2023-03-01T09:32:36;21.60;;;17.63;;
16288;SDS011;26089;43.538;5.250;2023-03-01T09:35:05;21.27;;;16.20;;
16288;SDS011;26089;43.538;5.250;2023-03-01T09:37:32;24.27;;;18.77;;
16288;SDS011;26089;43.538;5.250;2023-03-01T09:40:01;20.20;;;16.87;;
16288;SDS011;26089;43.538;5.250;2023-03-01T09:42:31;21.23;;;16.97;;
16288;SDS011;26089;43.538;5.250;2023-03-01T09:45:00;22.93;;;18.33;;
16288;SDS011;26089;43.538;5.250;2023-03-01T09:47:31;21.90;;;17.43;;
16288;SDS011;26089;43.538;5.250;2023-03-01T09:50:02;24.47;;;17.37;;
16288;SDS011;26089;43.538;5.250;2023-03-01T09:52:36;20.43;;;16.87;;
16288;SDS011;26089;43.538;5.250;2023-03-01T09:55:08;21.37;;;17.27;;
16288;SDS011;26089;43.538;5.250;2023-03-01T09:57:41;22.33;;;18.37;;
16288;SDS011;26089;43.538;5.250;2023-03-01T10:00:18;23.47;;;18.70;;
16288;SDS011;26089;43.538;5.250;2023-03-01T10:02:54;21.87;;;18.00;;
16288;SDS011;26089;43.538;5.250;2023-03-01T10:05:31;21.70;;;17.27;;
16288;SDS011;26089;43.538;5.250;2023-03-01T10:08:14;20.03;;;17.37;;
16288;SDS011;26089;43.538;5.250;2023-03-01T10:11:02;23.07;;;17.77;;
16288;SDS011;26089;43.538;5.250;2023-03-01T10:13:33;21.23;;;17.03;;
16288;SDS011;26089;43.538;5.250;2023-03-01T10:16:10;19.93;;;16.53;;
16288;SDS011;26089;43.538;5.250;2023-03-01T10:18:41;23.57;;;17.30;;
16288;SDS011;26089;43.538;5.250;2023-03-01T10:21:17;20.87;;;17.27;;
16288;SDS011;26089;43.538;5.250;2023-03-01T10:23:45;19.63;;;15.50;;
16288;SDS011;26089;43.538;5.250;2023-03-01T10:26:20;19.77;;;16.67;;
16288;SDS011;26089;43.538;5.250;2023-03-01T10:28:59;20.10;;;16.20;;
16288;SDS011;26089;43.538;5.250;2023-03-01T10:31:32;23.37;;;17.63;;
16288;SDS011;26089;43.538;5.250;2023-03-01T10:34:09;20.97;;;17.37;;
16288;SDS011;26089;43.538;5.250;2023-03-01T10:36:39;20.03;;;16.40;;
16288;SDS011;26089;43.538;5.250;2023-03-01T10:39:12;21.97;;;16.77;;
16288;SDS011;26089;43.538;5.250;2023-03-01T10:41:51;19.40;;;16.50;;
16288;SDS011;26089;43.538;5.250;2023-03-01T10:44:38;19.90;;;17.00;;
16288;SDS011;26089;43.538;5.250;2023-03-01T10:47:14;19.83;;;17.70;;
16288;SDS011;26089;43.538;5.250;2023-03-01T10:49:52;19.07;;;16.47;;
16288;SDS011;26089;43.538;5.250;2023-03-01T10:52:22;22.47;;;16.83;;
16288;SDS011;26089;43.538;5.250;2023-03-01T10:54:51;21.10;;;17.23;;
16288;SDS011;26089;43.538;5.250;2023-03-01T11:00:20;19.07;;;16.33;;
16288;SDS011;26089;43.538;5.250;2023-03-01T11:02:50;17.97;;;15.87;;
16288;SDS011;26089;43.538;5.250;2023-03-01T11:05:28;20.20;;;16.50;;
16288;SDS011;26089;43.538;5.250;2023-03-01T11:08:00;18.10;;;16.20;;
16288;SDS011;26089;43.538;5.250;2023-03-01T11:10:30;19.47;;;16.30;;
16288;SDS011;26089;43.538;5.250;2023-03-01T11:13:08;20.00;;;16.73;;
16288;SDS011;26089;43.538;5.250;2023-03-01T11:15:40;17.80;;;15.90;;
16288;SDS011;26089;43.538;5.250;2023-03-01T11:18:17;20.13;;;16.10;;
16288;SDS011;26089;43.538;5.250;2023-03-01T11:20:46;18.77;;;15.70;;
16288;SDS011;26089;43.538;5.250;2023-03-01T11:23:16;16.93;;;15.10;;
16288;SDS011;26089;43.538;5.250;2023-03-01T11:25:45;18.33;;;16.40;;
16288;SDS011;26089;43.538;5.250;2023-03-01T11:28:19;20.33;;;15.90;;
16288;SDS011;26089;43.538;5.250;2023-03-01T11:30:50;23.73;;;17.13;;
16288;SDS011;26089;43.538;5.250;2023-03-01T11:33:24;18.63;;;16.07;;
16288;SDS011;26089;43.538;5.250;2023-03-01T11:36:01;18.73;;;16.73;;
16288;SDS011;26089;43.538;5.250;2023-03-01T11:38:34;18.03;;;16.13;;
16288;SDS011;26089;43.538;5.250;2023-03-01T11:41:04;20.67;;;17.00;;
16288;SDS011;26089;43.538;5.250;2023-03-01T11:43:36;18.87;;;16.33;;
16288;SDS011;26089;43.538;5.250;2023-03-01T11:49:15;20.40;;;17.27;;
16288;SDS011;26089;43.538;5.250;2023-03-01T11:52:01;21.17;;;16.83;;
16288;SDS011;26089;43.538;5.250;2023-03-01T11:54:45;20.23;;;15.97;;
16288;SDS011;26089;43.538;5.250;2023-03-01T11:57:29;21.37;;;16.50;;
16288;SDS011;26089;43.538;5.250;2023-03-01T12:00:16;22.10;;;17.77;;
16288;SDS011;26089;43.538;5.250;2023-03-01T12:06:08;18.97;;;16.30;;
16288;SDS011;26089;43.538;5.250;2023-03-01T12:08:49;19.67;;;16.73;;
16288;SDS011;26089;43.538;5.250;2023-03-01T12:11:26;18.47;;;15.87;;
16288;SDS011;26089;43.538;5.250;2023-03-01T12:17:10;21.70;;;16.57;;
16288;SDS011;26089;43.538;5.250;2023-03-01T12:20:11;18.13;;;16.10;;
16288;SDS011;26089;43.538;5.250;2023-03-01T12:22:52;17.83;;;15.90;;
16288;SDS011;26089;43.538;5.250;2023-03-01T12:25:41;18.17;;;15.30;;
16288;SDS011;26089;43.538;5.250;2023-03-01T12:28:19;20.10;;;17.47;;
16288;SDS011;26089;43.538;5.250;2023-03-01T12:34:12;19.70;;;16.07;;
16288;SDS011;26089;43.538;5.250;2023-03-01T12:37:07;22.17;;;17.43;;
16288;SDS011;26089;43.538;5.250;2023-03-01T12:39:47;18.33;;;16.33;;
16288;SDS011;26089;43.538;5.250;2023-03-01T12:42:27;18.30;;;16.27;;
16288;SDS011;26089;43.538;5.250;2023-03-01T12:45:04;19.73;;;16.83;;
16288;SDS011;26089;43.538;5.250;2023-03-01T12:47:52;21.63;;;17.27;;
16288;SDS011;26089;43.538;5.250;2023-03-01T12:50:32;19.57;;;16.37;;
16288;SDS011;26089;43.538;5.250;2023-03-01T12:53:05;19.87;;;16.87;;
16288;SDS011;26089;43.538;5.250;2023-03-01T12:55:35;18.30;;;16.10;;
16288;SDS011;26089;43.538;5.250;2023-03-01T12:58:07;19.57;;;17.07;;
16288;SDS011;26089;43.538;5.250;2023-03-01T13:00:53;20.30;;;16.97;;
16288;SDS011;26089;43.538;5.250;2023-03-01T13:03:48;21.20;;;17.07;;
16288;SDS011;26089;43.538;5.250;2023-03-01T13:06:29;22.47;;;17.13;;
16288;SDS011;26089;43.538;5.250;2023-03-01T13:09:03;19.87;;;17.53;;
16288;SDS011;26089;43.538;5.250;2023-03-01T13:11:40;20.10;;;16.87;;
16288;SDS011;26089;43.538;5.250;2023-03-01T13:19:58;18.83;;;16.33;;
16288;SDS011;26089;43.538;5.250;2023-03-01T13:22:26;19.53;;;17.10;;
16288;SDS011;26089;43.538;5.250;2023-03-01T13:25:10;21.37;;;17.67;;
16288;SDS011;26089;43.538;5.250;2023-03-01T13:27:40;22.40;;;17.63;;
16288;SDS011;26089;43.538;5.250;2023-03-01T13:30:38;20.77;;;17.20;;
16288;SDS011;26089;43.538;5.250;2023-03-01T13:39:30;20.23;;;17.03;;
16288;SDS011;26089;43.538;5.250;2023-03-01T13:42:27;19.40;;;15.67;;
16288;SDS011;26089;43.538;5.250;2023-03-01T13:44:58;20.57;;;15.37;;
16288;SDS011;26089;43.538;5.250;2023-03-01T13:47:26;18.27;;;15.90;;
16288;SDS011;26089;43.538;5.250;2023-03-01T13:49:55;18.70;;;15.47;;
16288;SDS011;26089;43.538;5.250;2023-03-01T13:52:34;19.77;;;16.13;;
16288;SDS011;26089;43.538;5.250;2023-03-01T13:55:14;19.77;;;16.37;;
16288;SDS011;26089;43.538;5.250;2023-03-01T13:57:44;18.47;;;16.47;;
16288;SDS011;26089;43.538;5.250;2023-03-01T14:00:25;18.53;;;15.73;;
16288;SDS011;26089;43.538;5.250;2023-03-01T14:03:04;17.10;;;15.30;;
16288;SDS011;26089;43.538;5.250;2023-03-01T14:05:36;20.70;;;17.13;;
16288;SDS011;26089;43.538;5.250;2023-03-01T14:08:04;21.87;;;17.87;;
16288;SDS011;26089;43.538;5.250;2023-03-01T14:10:54;16.83;;;14.77;;
16288;SDS011;26089;43.538;5.250;2023-03-01T14:14:00;19.77;;;15.17;;
16288;SDS011;26089;43.538;5.250;2023-03-01T14:16:47;17.30;;;14.33;;
16288;SDS011;26089;43.538;5.250;2023-03-01T14:19:19;18.80;;;15.10;;
16288;SDS011;26089;43.538;5.250;2023-03-01T14:21:57;17.47;;;15.57;;
16288;SDS011;26089;43.538;5.250;2023-03-01T14:24:27;17.77;;;15.63;;
16288;SDS011;26089;43.538;5.250;2023-03-01T14:26:59;18.63;;;15.50;;
16288;SDS011;26089;43.538;5.250;2023-03-01T14:29:27;18.47;;;15.67;;
16288;SDS011;26089;43.538;5.250;2023-03-01T14:32:12;18.80;;;14.63;;
16288;SDS011;26089;43.538;5.250;2023-03-01T14:34:44;17.07;;;15.27;;
16288;SDS011;26089;43.538;5.250;2023-03-01T14:37:20;20.53;;;16.07;;
16288;SDS011;26089;43.538;5.250;2023-03-01T14:39:49;19.20;;;15.43;;
16288;SDS011;26089;43.538;5.250;2023-03-01T14:42:17;18.40;;;15.13;;
16288;SDS011;26089;43.538;5.250;2023-03-01T14:44:47;17.80;;;15.53;;
16288;SDS011;26089;43.538;5.250;2023-03-01T14:47:25;18.87;;;14.73;;
16288;SDS011;26089;43.538;5.250;2023-03-01T14:49:56;19.00;;;14.70;;
16288;SDS011;26089;43.538;5.250;2023-03-01T14:52:25;16.77;;;14.43;;
16288;SDS011;26089;43.538;5.250;2023-03-01T14:54:59;18.60;;;14.63;;
16288;SDS011;26089;43.538;5.250;2023-03-01T14:57:31;16.67;;;14.27;;
16288;SDS011;26089;43.538;5.250;2023-03-01T14:59:58;17.50;;;13.50;;
16288;SDS011;26089;43.538;5.250;2023-03-01T15:02:29;15.77;;;13.73;;
16288;SDS011;26089;43.538;5.250;2023-03-01T15:04:58;16.33;;;13.67;;
16288;SDS011;26089;43.538;5.250;2023-03-01T15:07:28;17.33;;;14.00;;
16288;SDS011;26089;43.538;5.250;2023-03-01T15:09:57;18.67;;;13.50;;